sensor_id;sensor_type;location;lat;lon;timestamp;pressure;altitude;pressure_sealevel;temperature;humidity
33161;BME280;19522;45.656;11.302;2023-02-11T00:01:33;100287.47;;;-0.64;52.44
33161;BME280;19522;45.656;11.302;2023-02-11T00:04:01;100300.94;;;-0.67;52.66
33161;BME280;19522;45.656;11.302;2023-02-11T00:06:28;100285.63;;;-0.63;52.07
33161;BME280;19522;45.656;11.302;2023-02-11T00:08:57;100273.78;;;-0.76;52.26
33161;BME280;19522;45.656;11.302;2023-02-11T00:11:24;100299.50;;;-0.55;52.00
33161;BME280;19522;45.656;11.302;2023-02-11T00:13:53;100305.69;;;-0.35;50.93
33161;BME280;19522;45.656;11.302;2023-02-11T00:16:19;100288.81;;;-0.36;50.91
33161;BME280;19522;45.656;11.302;2023-02-11T00:18:45;100305.41;;;-0.48;51.32
33161;BME280;19522;45.656;11.302;2023-02-11T00:21:14;100296.63;;;-0.69;52.01
33161;BME280;19522;45.656;11.302;2023-02-11T00:23:39;100304.56;;;-0.49;51.41
33161;BME280;19522;45.656;11.302;2023-02-11T00:26:17;100299.72;;;-0.40;50.91
33161;BME280;19522;45.656;11.302;2023-02-11T00:28:43;100299.00;;;-0.44;51.09
33161;BME280;19522;45.656;11.302;2023-02-11T00:31:10;100289.53;;;-0.51;51.09
33161;BME280;19522;45.656;11.302;2023-02-11T00:33:35;100287.56;;;-0.48;50.65
33161;BME280;19522;45.656;11.302;2023-02-11T00:36:06;100289.69;;;-0.54;50.41
33161;BME280;19522;45.656;11.302;2023-02-11T00:38:31;100285.06;;;-0.70;51.03
33161;BME280;19522;45.656;11.302;2023-02-11T00:40:57;100292.59;;;-0.59;50.64
33161;BME280;19522;45.656;11.302;2023-02-11T00:43:22;100272.22;;;-0.81;50.75
33161;BME280;19522;45.656;11.302;2023-02-11T00:45:48;100285.63;;;-0.63;50.47
33161;BME280;19522;45.656;11.302;2023-02-11T00:48:13;100283.34;;;-0.52;49.92
33161;BME280;19522;45.656;11.302;2023-02-11T00:50:39;100274.22;;;-0.48;49.68
33161;BME280;19522;45.656;11.302;2023-02-11T00:53:04;100284.19;;;-0.51;49.54
33161;BME280;19522;45.656;11.302;2023-02-11T00:55:30;100238.06;;;-0.91;50.25
33161;BME280;19522;45.656;11.302;2023-02-11T00:57:55;100253.69;;;-0.84;50.69
33161;BME280;19522;45.656;11.302;2023-02-11T01:00:23;100273.59;;;-0.72;50.98
33161;BME280;19522;45.656;11.302;2023-02-11T01:02:48;100250.97;;;-0.82;51.10
33161;BME280;19522;45.656;11.302;2023-02-11T01:05:17;100278.78;;;-0.69;51.21
33161;BME280;19522;45.656;11.302;2023-02-11T01:07:43;100270.91;;;-0.72;51.24
33161;BME280;19522;45.656;11.302;2023-02-11T01:10:09;100289.97;;;-0.60;51.17
33161;BME280;19522;45.656;11.302;2023-02-11T01:12:38;100260.31;;;-0.92;51.60
33161;BME280;19522;45.656;11.302;2023-02-11T01:15:06;100279.59;;;-0.67;51.37
33161;BME280;19522;45.656;11.302;2023-02-11T01:17:33;100275.19;;;-0.49;51.10
33161;BME280;19522;45.656;11.302;2023-02-11T01:20:04;100267.09;;;-0.47;50.84
33161;BME280;19522;45.656;11.302;2023-02-11T01:22:30;100260.19;;;-0.70;51.27
33161;BME280;19522;45.656;11.302;2023-02-11T01:24:56;100274.13;;;-0.64;51.16
33161;BME280;19522;45.656;11.302;2023-02-11T01:27:21;100277.44;;;-0.77;51.45
33161;BME280;19522;45.656;11.302;2023-02-11T01:29:47;100278.41;;;-0.80;51.39
33161;BME280;19522;45.656;11.302;2023-02-11T01:32:12;100273.50;;;-0.89;51.46
33161;BME280;19522;45.656;11.302;2023-02-11T01:34:41;100237.59;;;-1.20;51.59
33161;BME280;19522;45.656;11.302;2023-02-11T01:37:06;100275.84;;;-1.21;52.19
33161;BME280;19522;45.656;11.302;2023-02-11T01:39:32;100263.50;;;-1.24;52.28
33161;BME280;19522;45.656;11.302;2023-02-11T01:41:58;100220.28;;;-1.51;52.85
33161;BME280;19522;45.656;11.302;2023-02-11T01:44:36;100258.72;;;-0.97;52.35
33161;BME280;19522;45.656;11.302;2023-02-11T01:47:02;100251.91;;;-0.83;51.99
33161;BME280;19522;45.656;11.302;2023-02-11T01:49:32;100236.44;;;-0.96;51.74
33161;BME280;19522;45.656;11.302;2023-02-11T01:52:19;100255.41;;;-0.83;51.53
33161;BME280;19522;45.656;11.302;2023-02-11T01:55:05;100215.25;;;-0.99;51.43
33161;BME280;19522;45.656;11.302;2023-02-11T01:57:53;100259.47;;;-0.74;51.59
33161;BME280;19522;45.656;11.302;2023-02-11T02:00:35;100251.88;;;-1.02;51.33
33161;BME280;19522;45.656;11.302;2023-02-11T02:03:17;100259.34;;;-1.11;51.87
33161;BME280;19522;45.656;11.302;2023-02-11T02:05:52;100245.84;;;-1.27;52.28
33161;BME280;19522;45.656;11.302;2023-02-11T02:08:39;100265.09;;;-1.20;52.58
33161;BME280;19522;45.656;11.302;2023-02-11T02:11:07;100261.38;;;-0.97;52.20
33161;BME280;19522;45.656;11.302;2023-02-11T02:13:34;100271.72;;;-0.89;52.03
33161;BME280;19522;45.656;11.302;2023-02-11T02:16:06;100264.13;;;-0.79;51.69
33161;BME280;19522;45.656;11.302;2023-02-11T02:18:41;100269.53;;;-1.00;52.25
33161;BME280;19522;45.656;11.302;2023-02-11T02:39:46;100249.28;;;-0.66;52.18
33161;BME280;19522;45.656;11.302;2023-02-11T02:42:15;100247.41;;;-0.83;52.45
33161;BME280;19522;45.656;11.302;2023-02-11T02:44:47;100177.78;;;-1.54;53.47
33161;BME280;19522;45.656;11.302;2023-02-11T02:47:13;100241.44;;;-0.88;53.21
33161;BME280;19522;45.656;11.302;2023-02-11T02:49:38;100225.69;;;-1.13;53.31
33161;BME280;19522;45.656;11.302;2023-02-11T02:57:32;100235.16;;;-1.06;53.39
33161;BME280;19522;45.656;11.302;2023-02-11T03:00:12;100226.56;;;-1.13;53.20
33161;BME280;19522;45.656;11.302;2023-02-11T03:05:22;100231.38;;;-1.21;53.83
33161;BME280;19522;45.656;11.302;2023-02-11T03:08:19;100223.00;;;-1.32;54.35
33161;BME280;19522;45.656;11.302;2023-02-11T03:10:50;100172.06;;;-1.66;54.65
33161;BME280;19522;45.656;11.302;2023-02-11T03:13:20;100213.44;;;-1.57;54.88
33161;BME280;19522;45.656;11.302;2023-02-11T03:15:50;100220.41;;;-1.15;53.78
33161;BME280;19522;45.656;11.302;2023-02-11T03:18:18;100217.53;;;-1.10;53.76
33161;BME280;19522;45.656;11.302;2023-02-11T03:20:48;100191.50;;;-1.24;53.50
33161;BME280;19522;45.656;11.302;2023-02-11T03:23:22;100207.03;;;-1.13;53.41
33161;BME280;19522;45.656;11.302;2023-02-11T03:25:58;100207.38;;;-1.21;53.91
33161;BME280;19522;45.656;11.302;2023-02-11T03:33:33;100210.34;;;-1.27;54.29
33161;BME280;19522;45.656;11.302;2023-02-11T03:36:08;100169.00;;;-1.57;54.39
33161;BME280;19522;45.656;11.302;2023-02-11T03:38:45;100203.31;;;-1.30;54.22
33161;BME280;19522;45.656;11.302;2023-02-11T03:41:13;100200.25;;;-1.20;53.95
33161;BME280;19522;45.656;11.302;2023-02-11T03:43:46;100175.50;;;-1.24;53.46
33161;BME280;19522;45.656;11.302;2023-02-11T03:46:16;100190.44;;;-1.20;53.63
33161;BME280;19522;45.656;11.302;2023-02-11T03:48:47;100165.66;;;-1.41;53.79
33161;BME280;19522;45.656;11.302;2023-02-11T03:51:15;100190.41;;;-1.39;54.62
33161;BME280;19522;45.656;11.302;2023-02-11T03:53:45;100189.13;;;-1.49;54.99
33161;BME280;19522;45.656;11.302;2023-02-11T03:56:18;100184.94;;;-1.55;54.60
33161;BME280;19522;45.656;11.302;2023-02-11T03:58:51;100193.50;;;-1.48;54.20
33161;BME280;19522;45.656;11.302;2023-02-11T04:01:17;100194.47;;;-1.70;55.01
33161;BME280;19522;45.656;11.302;2023-02-11T04:03:42;100187.84;;;-1.82;55.93
33161;BME280;19522;45.656;11.302;2023-02-11T04:06:08;100173.66;;;-1.62;55.44
33161;BME280;19522;45.656;11.302;2023-02-11T04:08:34;100134.47;;;-1.79;54.93
33161;BME280;19522;45.656;11.302;2023-02-11T04:10:59;100174.09;;;-1.52;53.66
33161;BME280;19522;45.656;11.302;2023-02-11T04:13:25;100165.59;;;-1.60;53.48
33161;BME280;19522;45.656;11.302;2023-02-11T04:15:51;100169.41;;;-1.66;54.14
33161;BME280;19522;45.656;11.302;2023-02-11T04:18:16;100166.75;;;-1.66;54.48
33161;BME280;19522;45.656;11.302;2023-02-11T04:20:42;100168.78;;;-1.52;53.67
33161;BME280;19522;45.656;11.302;2023-02-11T04:23:07;100146.97;;;-1.81;54.46
33161;BME280;19522;45.656;11.302;2023-02-11T04:25:34;100171.63;;;-1.76;54.98
33161;BME280;19522;45.656;11.302;2023-02-11T04:27:59;100169.38;;;-1.85;55.51
33161;BME280;19522;45.656;11.302;2023-02-11T04:30:25;100165.13;;;-1.49;54.00
33161;BME280;19522;45.656;11.302;2023-02-11T04:32:50;100165.25;;;-1.52;54.27
33161;BME280;19522;45.656;11.302;2023-02-11T04:35:18;100166.91;;;-1.69;54.73
33161;BME280;19522;45.656;11.302;2023-02-11T04:37:43;100112.44;;;-2.03;54.79
33161;BME280;19522;45.656;11.302;2023-02-11T04:40:12;100159.44;;;-1.81;55.41
33161;BME280;19522;45.656;11.302;2023-02-11T04:42:37;100163.13;;;-1.65;55.11
33161;BME280;19522;45.656;11.302;2023-02-11T04:45:03;100164.78;;;-1.62;55.09
33161;BME280;19522;45.656;11.302;2023-02-11T04:47:29;100168.59;;;-1.68;55.10
33161;BME280;19522;45.656;11.302;2023-02-11T04:49:54;100160.47;;;-1.65;54.96
33161;BME280;19522;45.656;11.302;2023-02-11T04:52:20;100143.94;;;-1.52;54.55
33161;BME280;19522;45.656;11.302;2023-02-11T04:54:45;100145.09;;;-1.58;54.64
33161;BME280;19522;45.656;11.302;2023-02-11T04:57:11;100127.13;;;-1.74;54.69
33161;BME280;19522;45.656;11.302;2023-02-11T04:59:36;100149.56;;;-1.39;53.56
33161;BME280;19522;45.656;11.302;2023-02-11T05:02:02;100144.28;;;-1.60;54.07
33161;BME280;19522;45.656;11.302;2023-02-11T05:04:28;100147.44;;;-1.71;54.44
33161;BME280;19522;45.656;11.302;2023-02-11T05:06:54;100147.34;;;-1.89;54.86
33161;BME280;19522;45.656;11.302;2023-02-11T05:09:19;100138.97;;;-1.81;55.00
33161;BME280;19522;45.656;11.302;2023-02-11T05:11:45;100155.47;;;-1.73;54.95
33161;BME280;19522;45.656;11.302;2023-02-11T05:14:10;100120.75;;;-1.90;55.14
33161;BME280;19522;45.656;11.302;2023-02-11T05:16:36;100144.38;;;-1.82;55.76
33161;BME280;19522;45.656;11.302;2023-02-11T05:19:02;100073.44;;;-2.25;55.08
33161;BME280;19522;45.656;11.302;2023-02-11T05:21:27;100146.81;;;-1.38;54.16
33161;BME280;19522;45.656;11.302;2023-02-11T05:23:53;100128.75;;;-1.31;52.94
33161;BME280;19522;45.656;11.302;2023-02-11T05:26:18;100138.56;;;-1.32;53.45
33161;BME280;19522;45.656;11.302;2023-02-11T05:28:44;100149.91;;;-1.66;54.40
33161;BME280;19522;45.656;11.302;2023-02-11T05:31:10;100144.97;;;-1.76;54.68
33161;BME280;19522;45.656;11.302;2023-02-11T05:33:36;100085.56;;;-2.17;54.93
33161;BME280;19522;45.656;11.302;2023-02-11T05:36:05;100135.53;;;-1.83;54.85
33161;BME280;19522;45.656;11.302;2023-02-11T05:38:31;100147.16;;;-1.85;55.52
33161;BME280;19522;45.656;11.302;2023-02-11T05:40:57;100100.63;;;-1.77;54.99
33161;BME280;19522;45.656;11.302;2023-02-11T05:43:22;100144.19;;;-1.59;55.03
33161;BME280;19522;45.656;11.302;2023-02-11T05:45:48;100113.63;;;-1.90;55.58
33161;BME280;19522;45.656;11.302;2023-02-11T05:48:14;100123.78;;;-1.58;55.01
33161;BME280;19522;45.656;11.302;2023-02-11T05:50:42;100123.25;;;-1.66;54.97
33161;BME280;19522;45.656;11.302;2023-02-11T05:53:08;100130.13;;;-1.81;55.29
33161;BME280;19522;45.656;11.302;2023-02-11T05:55:34;100130.44;;;-2.08;55.88
33161;BME280;19522;45.656;11.302;2023-02-11T05:57:59;100127.38;;;-1.80;55.48
33161;BME280;19522;45.656;11.302;2023-02-11T06:00:25;100122.25;;;-1.64;54.66
33161;BME280;19522;45.656;11.302;2023-02-11T06:02:51;100114.03;;;-1.59;54.34
33161;BME280;19522;45.656;11.302;2023-02-11T06:05:16;100119.66;;;-1.46;54.26
33161;BME280;19522;45.656;11.302;2023-02-11T06:07:42;100132.97;;;-1.65;54.65
33161;BME280;19522;45.656;11.302;2023-02-11T06:10:08;100100.72;;;-1.99;55.33
33161;BME280;19522;45.656;11.302;2023-02-11T06:12:35;100115.78;;;-1.98;56.07
33161;BME280;19522;45.656;11.302;2023-02-11T06:15:01;100121.75;;;-1.93;56.56
33161;BME280;19522;45.656;11.302;2023-02-11T06:17:26;100100.78;;;-2.21;57.12
33161;BME280;19522;45.656;11.302;2023-02-11T06:19:55;100106.06;;;-1.99;56.72
33161;BME280;19522;45.656;11.302;2023-02-11T06:22:21;100118.44;;;-1.98;56.66
33161;BME280;19522;45.656;11.302;2023-02-11T06:24:46;100122.03;;;-1.59;55.29
33161;BME280;19522;45.656;11.302;2023-02-11T06:27:12;100116.53;;;-1.75;55.71
33161;BME280;19522;45.656;11.302;2023-02-11T06:29:37;100072.75;;;-1.89;55.15
33161;BME280;19522;45.656;11.302;2023-02-11T06:32:03;100096.44;;;-1.82;54.03
33161;BME280;19522;45.656;11.302;2023-02-11T06:34:29;100114.41;;;-1.88;54.50
33161;BME280;19522;45.656;11.302;2023-02-11T06:36:54;100117.69;;;-2.01;55.49
33161;BME280;19522;45.656;11.302;2023-02-11T06:39:20;100124.28;;;-1.90;55.70
33161;BME280;19522;45.656;11.302;2023-02-11T06:41:45;100077.31;;;-2.11;56.17
33161;BME280;19522;45.656;11.302;2023-02-11T06:44:10;100107.19;;;-1.84;56.39
33161;BME280;19522;45.656;11.302;2023-02-11T06:46:36;100088.56;;;-2.05;56.71
33161;BME280;19522;45.656;11.302;2023-02-11T06:49:01;100113.88;;;-1.96;57.38
33161;BME280;19522;45.656;11.302;2023-02-11T06:51:27;100097.28;;;-1.82;56.64
33161;BME280;19522;45.656;11.302;2023-02-11T06:53:55;100122.88;;;-1.78;56.73
33161;BME280;19522;45.656;11.302;2023-02-11T06:56:22;100121.22;;;-1.61;56.20
33161;BME280;19522;45.656;11.302;2023-02-11T06:58:54;100111.63;;;-1.45;55.62
33161;BME280;19522;45.656;11.302;2023-02-11T07:01:21;100116.00;;;-1.63;56.25
33161;BME280;19522;45.656;11.302;2023-02-11T07:03:46;100121.03;;;-1.57;55.94
33161;BME280;19522;45.656;11.302;2023-02-11T07:06:15;100109.50;;;-1.57;55.73
33161;BME280;19522;45.656;11.302;2023-02-11T07:08:41;100122.38;;;-1.67;55.86
33161;BME280;19522;45.656;11.302;2023-02-11T07:11:26;100108.78;;;-1.61;55.29
33161;BME280;19522;45.656;11.302;2023-02-11T07:13:59;100123.25;;;-1.47;55.25
33161;BME280;19522;45.656;11.302;2023-02-11T07:16:25;100125.41;;;-1.55;55.09
33161;BME280;19522;45.656;11.302;2023-02-11T07:18:51;100133.19;;;-1.70;55.54
33161;BME280;19522;45.656;11.302;2023-02-11T07:21:19;100135.97;;;-1.73;55.96
33161;BME280;19522;45.656;11.302;2023-02-11T07:23:45;100137.03;;;-1.77;56.62
33161;BME280;19522;45.656;11.302;2023-02-11T07:26:14;100133.03;;;-1.67;56.63
33161;BME280;19522;45.656;11.302;2023-02-11T07:28:40;100137.09;;;-1.58;56.45
33161;BME280;19522;45.656;11.302;2023-02-11T07:31:11;100138.69;;;-1.35;56.59
33161;BME280;19522;45.656;11.302;2023-02-11T07:33:37;100111.41;;;-1.21;55.89
33161;BME280;19522;45.656;11.302;2023-02-11T07:36:04;100135.53;;;-1.05;55.58
33161;BME280;19522;45.656;11.302;2023-02-11T07:38:31;100115.88;;;-0.85;54.61
33161;BME280;19522;45.656;11.302;2023-02-11T07:41:01;100132.91;;;-0.87;54.88
33161;BME280;19522;45.656;11.302;2023-02-11T07:43:27;100115.63;;;-0.98;54.78
33161;BME280;19522;45.656;11.302;2023-02-11T07:45:53;100136.59;;;-0.90;55.11
33161;BME280;19522;45.656;11.302;2023-02-11T07:48:19;100140.13;;;-0.89;54.73
33161;BME280;19522;45.656;11.302;2023-02-11T07:50:44;100121.94;;;-0.44;53.14
33161;BME280;19522;45.656;11.302;2023-02-11T07:53:10;100129.41;;;-0.16;52.24
33161;BME280;19522;45.656;11.302;2023-02-11T07:55:35;100136.88;;;-0.23;52.52
33161;BME280;19522;45.656;11.302;2023-02-11T07:58:01;100130.25;;;-0.16;51.95
33161;BME280;19522;45.656;11.302;2023-02-11T08:00:26;100140.16;;;-0.18;52.54
33161;BME280;19522;45.656;11.302;2023-02-11T08:03:00;100115.72;;;-0.10;52.15
33161;BME280;19522;45.656;11.302;2023-02-11T08:05:29;100109.59;;;-0.12;51.78
33161;BME280;19522;45.656;11.302;2023-02-11T08:07:55;100138.63;;;0.29;51.48
33161;BME280;19522;45.656;11.302;2023-02-11T08:10:23;100138.94;;;0.41;51.52
33161;BME280;19522;45.656;11.302;2023-02-11T08:12:50;100133.41;;;0.44;51.53
33161;BME280;19522;45.656;11.302;2023-02-11T08:15:16;100142.41;;;0.59;51.04
33161;BME280;19522;45.656;11.302;2023-02-11T08:17:41;100133.88;;;0.68;50.68
33161;BME280;19522;45.656;11.302;2023-02-11T08:20:07;100101.09;;;0.65;50.27
33161;BME280;19522;45.656;11.302;2023-02-11T08:22:33;100136.41;;;0.87;49.90
33161;BME280;19522;45.656;11.302;2023-02-11T08:24:59;100128.63;;;1.31;48.70
33161;BME280;19522;45.656;11.302;2023-02-11T08:27:25;100105.34;;;1.17;48.75
33161;BME280;19522;45.656;11.302;2023-02-11T08:29:54;100125.00;;;1.48;48.38
33161;BME280;19522;45.656;11.302;2023-02-11T08:32:20;100107.72;;;1.53;47.51
33161;BME280;19522;45.656;11.302;2023-02-11T08:34:50;100076.69;;;1.49;46.98
33161;BME280;19522;45.656;11.302;2023-02-11T08:37:18;100102.44;;;1.82;46.45
33161;BME280;19522;45.656;11.302;2023-02-11T08:39:44;100126.50;;;2.13;46.25
33161;BME280;19522;45.656;11.302;2023-02-11T08:42:14;100120.03;;;2.31;46.01
33161;BME280;19522;45.656;11.302;2023-02-11T08:44:40;100126.06;;;2.49;46.17
33161;BME280;19522;45.656;11.302;2023-02-11T08:47:06;100115.34;;;2.64;46.03
33161;BME280;19522;45.656;11.302;2023-02-11T08:49:31;100112.66;;;2.78;45.82
33161;BME280;19522;45.656;11.302;2023-02-11T08:52:00;100103.47;;;2.68;45.51
33161;BME280;19522;45.656;11.302;2023-02-11T08:54:29;100118.00;;;2.93;44.84
33161;BME280;19522;45.656;11.302;2023-02-11T08:56:54;100097.34;;;3.08;44.65
33161;BME280;19522;45.656;11.302;2023-02-11T08:59:20;100043.59;;;2.95;44.53
33161;BME280;19522;45.656;11.302;2023-02-11T09:01:45;100108.25;;;3.47;43.68
33161;BME280;19522;45.656;11.302;2023-02-11T09:04:12;100112.41;;;3.65;42.88
33161;BME280;19522;45.656;11.302;2023-02-11T09:06:37;100098.84;;;3.67;42.58
33161;BME280;19522;45.656;11.302;2023-02-11T09:09:03;100115.13;;;3.91;41.78
33161;BME280;19522;45.656;11.302;2023-02-11T09:11:32;100120.25;;;4.21;41.62
33161;BME280;19522;45.656;11.302;2023-02-11T09:13:59;100092.91;;;4.41;40.43
33161;BME280;19522;45.656;11.302;2023-02-11T09:16:27;100117.72;;;4.83;39.75
33161;BME280;19522;45.656;11.302;2023-02-11T09:18:55;100099.63;;;4.85;40.32
33161;BME280;19522;45.656;11.302;2023-02-11T09:21:21;100114.81;;;5.23;39.30
33161;BME280;19522;45.656;11.302;2023-02-11T09:23:46;100094.81;;;5.39;38.15
33161;BME280;19522;45.656;11.302;2023-02-11T09:26:18;100122.69;;;6.11;36.50
33161;BME280;19522;45.656;11.302;2023-02-11T09:28:45;100097.09;;;6.28;33.81
33161;BME280;19522;45.656;11.302;2023-02-11T09:31:13;100120.66;;;6.37;31.55
33161;BME280;19522;45.656;11.302;2023-02-11T09:33:40;100113.06;;;6.76;32.17
33161;BME280;19522;45.656;11.302;2023-02-11T09:36:20;100108.50;;;6.65;31.31
33161;BME280;19522;45.656;11.302;2023-02-11T09:38:47;100064.94;;;6.70;31.79
33161;BME280;19522;45.656;11.302;2023-02-11T09:41:52;100086.84;;;7.22;30.54
33161;BME280;19522;45.656;11.302;2023-02-11T09:44:26;100129.50;;;7.51;30.38
33161;BME280;19522;45.656;11.302;2023-02-11T09:46:58;100113.28;;;7.51;30.66
33161;BME280;19522;45.656;11.302;2023-02-11T09:52:31;100134.19;;;8.56;28.75
33161;BME280;19522;45.656;11.302;2023-02-11T09:55:01;100115.44;;;9.06;28.00
33161;BME280;19522;45.656;11.302;2023-02-11T09:57:34;100125.13;;;9.08;26.62
33161;BME280;19522;45.656;11.302;2023-02-11T10:00:11;100104.56;;;8.96;27.10
33161;BME280;19522;45.656;11.302;2023-02-11T10:21:50;100109.38;;;8.30;26.87
33161;BME280;19522;45.656;11.302;2023-02-11T10:24:18;100094.88;;;7.77;26.83
33161;BME280;19522;45.656;11.302;2023-02-11T10:26:44;100116.13;;;7.82;26.56
33161;BME280;19522;45.656;11.302;2023-02-11T10:31:42;100116.22;;;8.34;27.28
33161;BME280;19522;45.656;11.302;2023-02-11T10:34:10;100101.25;;;8.30;27.74
33161;BME280;19522;45.656;11.302;2023-02-11T10:36:40;100091.78;;;8.03;28.52
33161;BME280;19522;45.656;11.302;2023-02-11T10:39:18;100110.59;;;8.26;28.80
33161;BME280;19522;45.656;11.302;2023-02-11T10:41:56;100100.59;;;9.00;28.01
33161;BME280;19522;45.656;11.302;2023-02-11T10:44:29;100093.22;;;9.22;27.38
33161;BME280;19522;45.656;11.302;2023-02-11T10:46:56;100091.84;;;9.47;27.80
33161;BME280;19522;45.656;11.302;2023-02-11T10:49:55;100083.00;;;9.84;27.36
33161;BME280;19522;45.656;11.302;2023-02-11T10:52:27;100068.13;;;9.39;27.68
33161;BME280;19522;45.656;11.302;2023-02-11T10:55:04;100081.03;;;8.96;26.48
33161;BME280;19522;45.656;11.302;2023-02-11T10:57:36;100067.13;;;8.70;27.41
33161;BME280;19522;45.656;11.302;2023-02-11T11:03:16;100056.44;;;9.68;27.05
33161;BME280;19522;45.656;11.302;2023-02-11T11:05:48;100052.53;;;9.12;27.54
33161;BME280;19522;45.656;11.302;2023-02-11T11:08:14;100049.66;;;8.94;26.65
33161;BME280;19522;45.656;11.302;2023-02-11T11:11:06;100036.69;;;8.25;26.76
33161;BME280;19522;45.656;11.302;2023-02-11T11:16:53;100045.44;;;8.60;28.01
33161;BME280;19522;45.656;11.302;2023-02-11T11:19:23;100028.44;;;8.37;28.09
33161;BME280;19522;45.656;11.302;2023-02-11T11:21:53;100031.84;;;8.29;27.25
33161;BME280;19522;45.656;11.302;2023-02-11T11:26:57;100025.97;;;8.24;28.27
33161;BME280;19522;45.656;11.302;2023-02-11T11:29:34;100027.66;;;7.94;27.84
33161;BME280;19522;45.656;11.302;2023-02-11T11:34:41;100018.56;;;7.74;28.96
33161;BME280;19522;45.656;11.302;2023-02-11T11:37:27;100014.44;;;8.22;28.95
33161;BME280;19522;45.656;11.302;2023-02-11T11:42:28;100006.84;;;8.78;28.33
33161;BME280;19522;45.656;11.302;2023-02-11T11:45:00;100006.13;;;8.76;28.69
33161;BME280;19522;45.656;11.302;2023-02-11T11:50:34;99997.25;;;8.64;29.38
33161;BME280;19522;45.656;11.302;2023-02-11T11:56:04;99956.81;;;8.00;29.51
33161;BME280;19522;45.656;11.302;2023-02-11T11:58:34;99966.75;;;8.62;30.37
33161;BME280;19522;45.656;11.302;2023-02-11T12:04:10;99985.31;;;9.74;28.55
33161;BME280;19522;45.656;11.302;2023-02-11T12:15:17;99985.31;;;9.74;28.13
33161;BME280;19522;45.656;11.302;2023-02-11T12:23:31;99951.38;;;10.18;28.13
33161;BME280;19522;45.656;11.302;2023-02-11T12:26:20;99960.19;;;10.57;27.64
33161;BME280;19522;45.656;11.302;2023-02-11T12:39:49;99951.25;;;11.11;27.31
33161;BME280;19522;45.656;11.302;2023-02-11T12:56:40;99881.25;;;9.18;30.56
33161;BME280;19522;45.656;11.302;2023-02-11T12:59:13;99963.25;;;9.49;30.04
33161;BME280;19522;45.656;11.302;2023-02-11T13:01:42;99957.56;;;9.13;30.60
33161;BME280;19522;45.656;11.302;2023-02-11T13:04:28;99963.09;;;9.51;30.92
33161;BME280;19522;45.656;11.302;2023-02-11T13:07:09;99960.84;;;10.41;29.54
33161;BME280;19522;45.656;11.302;2023-02-11T13:09:44;99956.63;;;11.39;28.99
33161;BME280;19522;45.656;11.302;2023-02-11T13:12:13;99913.44;;;12.15;27.95
33161;BME280;19522;45.656;11.302;2023-02-11T13:14:58;99945.41;;;11.87;27.63
33161;BME280;19522;45.656;11.302;2023-02-11T13:17:32;99919.56;;;11.38;27.72
33161;BME280;19522;45.656;11.302;2023-02-11T13:20:11;99868.28;;;11.51;27.64
33161;BME280;19522;45.656;11.302;2023-02-11T13:22:47;99946.19;;;12.31;27.34
33161;BME280;19522;45.656;11.302;2023-02-11T13:25:38;99940.69;;;12.23;26.91
33161;BME280;19522;45.656;11.302;2023-02-11T13:28:28;99941.31;;;12.43;25.70
33161;BME280;19522;45.656;11.302;2023-02-11T13:30:59;99933.88;;;12.62;26.17
33161;BME280;19522;45.656;11.302;2023-02-11T13:33:35;99926.44;;;12.81;25.27
33161;BME280;19522;45.656;11.302;2023-02-11T13:38:28;99930.44;;;12.52;26.28
33161;BME280;19522;45.656;11.302;2023-02-11T13:41:17;99925.91;;;12.69;26.06
33161;BME280;19522;45.656;11.302;2023-02-11T13:43:56;99913.31;;;12.25;25.96
33161;BME280;19522;45.656;11.302;2023-02-11T13:46:22;99912.63;;;12.23;26.35
33161;BME280;19522;45.656;11.302;2023-02-11T13:48:49;99917.28;;;13.06;25.89
33161;BME280;19522;45.656;11.302;2023-02-11T13:51:36;99885.56;;;13.05;25.51
33161;BME280;19522;45.656;11.302;2023-02-11T13:54:03;99916.88;;;12.76;25.62
33161;BME280;19522;45.656;11.302;2023-02-11T13:58:56;99901.50;;;12.59;26.15
33161;BME280;19522;45.656;11.302;2023-02-11T14:01:43;99904.69;;;12.38;26.01
33161;BME280;19522;45.656;11.302;2023-02-11T14:13:36;99898.81;;;12.75;26.97
33161;BME280;19522;45.656;11.302;2023-02-11T14:16:22;99896.53;;;12.46;26.79
33161;BME280;19522;45.656;11.302;2023-02-11T14:21:16;99898.75;;;11.11;27.69
33161;BME280;19522;45.656;11.302;2023-02-11T14:23:43;99863.56;;;10.73;28.72
33161;BME280;19522;45.656;11.302;2023-02-11T14:28:41;99876.34;;;10.90;28.87
33161;BME280;19522;45.656;11.302;2023-02-11T14:31:30;99865.81;;;10.96;28.00
33161;BME280;19522;45.656;11.302;2023-02-11T14:42:19;99870.72;;;10.56;29.38
33161;BME280;19522;45.656;11.302;2023-02-11T14:44:50;99871.41;;;10.40;29.98
33161;BME280;19522;45.656;11.302;2023-02-11T14:50:43;99865.38;;;10.64;29.42
33161;BME280;19522;45.656;11.302;2023-02-11T14:53:16;99871.50;;;10.84;29.45
33161;BME280;19522;45.656;11.302;2023-02-11T14:55:46;99859.25;;;10.34;29.21
33161;BME280;19522;45.656;11.302;2023-02-11T14:58:22;99850.00;;;9.61;31.04
33161;BME280;19522;45.656;11.302;2023-02-11T15:01:05;99860.09;;;9.79;31.24
33161;BME280;19522;45.656;11.302;2023-02-11T15:03:48;99861.84;;;9.70;31.48
33161;BME280;19522;45.656;11.302;2023-02-11T15:06:20;99859.25;;;10.06;30.98
33161;BME280;19522;45.656;11.302;2023-02-11T15:08:55;99859.47;;;9.47;31.46
33161;BME280;19522;45.656;11.302;2023-02-11T15:11:26;99830.19;;;9.03;32.00
33161;BME280;19522;45.656;11.302;2023-02-11T15:13:52;99832.72;;;9.05;32.71
33161;BME280;19522;45.656;11.302;2023-02-11T15:16:22;99854.66;;;9.31;32.93
33161;BME280;19522;45.656;11.302;2023-02-11T15:18:54;99845.69;;;9.31;32.98
33161;BME280;19522;45.656;11.302;2023-02-11T15:21:32;99858.53;;;9.19;32.84
33161;BME280;19522;45.656;11.302;2023-02-11T15:26:46;99839.56;;;9.19;33.03
33161;BME280;19522;45.656;11.302;2023-02-11T15:29:19;99838.00;;;9.16;33.78
33161;BME280;19522;45.656;11.302;2023-02-11T15:32:02;99839.06;;;9.43;33.13